createdAt,value
2022-10-29T00:01:05.998Z,15.18
2022-10-29T00:04:18.446Z,12.43
2022-10-29T00:07:24.037Z,12.15
2022-10-29T00:10:29.411Z,11.80
2022-10-29T00:13:38.237Z,12.27
2022-10-29T00:16:43.752Z,11.15
2022-10-29T00:19:49.597Z,12.27
2022-10-29T00:22:56.489Z,12.48
2022-10-29T00:26:02.285Z,13.68
2022-10-29T00:29:10.128Z,16.08
2022-10-29T00:32:15.752Z,10.38
2022-10-29T00:35:21.786Z,12.45
2022-10-29T00:38:27.456Z,12.07
2022-10-29T00:41:33.421Z,10.93
2022-10-29T00:44:41.393Z,10.80
2022-10-29T00:47:46.532Z,13.65
2022-10-29T00:50:54.565Z,17.10
2022-10-29T00:54:01.617Z,14.18
2022-10-29T00:57:09.686Z,12.23
2022-10-29T01:00:18.808Z,11.35
2022-10-29T01:03:24.165Z,11.25
2022-10-29T01:06:29.603Z,13.70
2022-10-29T01:09:34.896Z,11.48
2022-10-29T01:12:49.536Z,11.20
2022-10-29T01:16:01.138Z,12.77
2022-10-29T01:19:13.198Z,15.88
2022-10-29T01:22:22.843Z,20.35
2022-10-29T01:25:35.491Z,13.80
2022-10-29T01:28:48.227Z,14.57
2022-10-29T01:35:04.030Z,13.32
2022-10-29T01:38:12.883Z,16.52
2022-10-29T01:41:24.254Z,13.63
2022-10-29T01:44:32.786Z,17.27
2022-10-29T01:47:41.665Z,11.40
2022-10-29T01:50:51.421Z,11.80
2022-10-29T01:53:57.157Z,12.65
2022-10-29T01:57:03.168Z,14.90
2022-10-29T02:00:10.139Z,16.08
2022-10-29T02:03:20.424Z,12.95
2022-10-29T02:06:36.343Z,17.65
2022-10-29T02:09:46.586Z,15.95
2022-10-29T02:12:53.401Z,21.50
2022-10-29T02:16:00.010Z,20.42
2022-10-29T02:19:08.674Z,23.75
2022-10-29T02:22:19.007Z,16.90
2022-10-29T02:25:24.392Z,17.42
2022-10-29T02:28:29.336Z,22.85
2022-10-29T02:31:36.353Z,18.70
2022-10-29T02:34:41.600Z,16.92
2022-10-29T02:37:51.101Z,15.38
2022-10-29T02:40:58.492Z,13.88
2022-10-29T02:44:03.897Z,15.85
2022-10-29T02:47:09.020Z,16.02
2022-10-29T02:50:14.301Z,16.30
2022-10-29T02:53:21.853Z,21.08
2022-10-29T02:56:28.270Z,20.67
2022-10-29T02:59:34.571Z,16.33
2022-10-29T03:02:39.932Z,14.70
2022-10-29T03:05:49.091Z,19.88
2022-10-29T03:08:57.259Z,20.80
2022-10-29T03:12:02.465Z,21.20
2022-10-29T03:15:08.629Z,18.50
2022-10-29T03:18:13.734Z,26.08
2022-10-29T03:21:19.405Z,27.05
2022-10-29T03:24:29.030Z,27.90
2022-10-29T03:27:34.587Z,19.90
2022-10-29T03:30:39.849Z,19.67
2022-10-29T03:33:45.033Z,19.15
2022-10-29T03:36:49.933Z,16.95
2022-10-29T03:39:58.686Z,18.98
2022-10-29T03:43:03.668Z,16.98
2022-10-29T03:46:09.628Z,18.92
2022-10-29T03:49:14.569Z,20.35
2022-10-29T03:52:19.962Z,20.83
2022-10-29T03:55:29.244Z,20.45
2022-10-29T03:58:34.930Z,21.25
2022-10-29T04:01:40.464Z,18.40
2022-10-29T04:04:46.234Z,21.08
2022-10-29T04:07:52.766Z,14.80
2022-10-29T04:11:00.773Z,14.35
2022-10-29T04:14:05.740Z,16.38
2022-10-29T04:17:11.288Z,11.82
2022-10-29T04:20:40.610Z,13.15
2022-10-29T04:28:36.735Z,13.00
2022-10-29T04:30:34.892Z,11.43
2022-10-29T04:33:40.096Z,8.10
2022-10-29T04:36:46.469Z,13.10
2022-10-29T04:39:51.847Z,10.40
2022-10-29T04:43:01.015Z,13.15
2022-10-29T04:46:07.197Z,9.88
2022-10-29T04:49:12.771Z,14.85
2022-10-29T04:52:17.945Z,9.10
2022-10-29T04:55:23.816Z,12.63
2022-10-29T04:58:32.565Z,11.93
2022-10-29T05:01:38.004Z,12.18
2022-10-29T05:04:43.277Z,9.38
2022-10-29T05:07:52.618Z,10.80
2022-10-29T05:10:59.660Z,9.48
2022-10-29T05:14:08.444Z,8.90
2022-10-29T05:17:13.474Z,6.32
2022-10-29T05:20:19.089Z,10.30
2022-10-29T05:23:24.397Z,13.80
2022-10-29T05:26:30.112Z,14.10
2022-10-29T05:29:38.824Z,12.27
2022-10-29T05:32:44.780Z,13.60
2022-10-29T05:35:50.041Z,15.23
2022-10-29T05:38:55.577Z,9.07
2022-10-29T05:42:12.184Z,12.45
2022-10-29T05:45:21.965Z,10.32
2022-10-29T05:48:30.913Z,10.75
2022-10-29T05:51:36.712Z,12.05
2022-10-29T05:54:41.696Z,15.40
2022-10-29T05:57:47.236Z,10.88
2022-10-29T06:00:58.286Z,11.32
2022-10-29T06:04:03.677Z,9.32
2022-10-29T06:07:10.549Z,9.23
2022-10-29T06:10:16.157Z,11.77
2022-10-29T06:13:21.820Z,13.73
2022-10-29T06:16:30.175Z,12.40
2022-10-29T06:19:35.546Z,10.50
2022-10-29T06:22:41.125Z,14.43
2022-10-29T06:25:46.479Z,15.32
2022-10-29T06:28:51.842Z,11.15
2022-10-29T06:32:02.358Z,17.40
2022-10-29T06:35:08.057Z,15.48
2022-10-29T06:38:13.432Z,12.35
2022-10-29T06:41:18.749Z,15.02
2022-10-29T06:44:23.706Z,11.48
2022-10-29T06:47:33.683Z,13.02
2022-10-29T06:50:40.689Z,12.60
2022-10-29T06:53:54.343Z,14.60
2022-10-29T06:57:01.591Z,15.38
2022-10-29T07:00:08.783Z,14.63
2022-10-29T07:03:17.968Z,12.38
2022-10-29T07:06:25.033Z,10.05
2022-10-29T07:09:30.198Z,13.98
2022-10-29T07:12:35.996Z,16.92
2022-10-29T07:15:42.485Z,10.73
2022-10-29T07:18:53.974Z,11.77
2022-10-29T07:21:59.043Z,15.00
2022-10-29T07:25:08.203Z,12.15
2022-10-29T07:28:14.666Z,15.20
2022-10-29T07:31:21.109Z,11.38
2022-10-29T07:34:28.754Z,12.27
2022-10-29T07:37:34.193Z,12.43
2022-10-29T07:40:39.704Z,14.00
2022-10-29T07:43:45.267Z,13.32
2022-10-29T07:46:54.341Z,6.47
2022-10-29T07:50:03.082Z,8.02
2022-10-29T07:53:09.533Z,9.73
2022-10-29T07:56:14.982Z,12.80
2022-10-29T07:59:22.212Z,8.85
2022-10-29T08:02:27.746Z,14.55
2022-10-29T08:05:36.175Z,15.00
2022-10-29T08:08:46.125Z,14.43
2022-10-29T08:11:51.340Z,18.35
2022-10-29T08:15:08.962Z,10.38
2022-10-29T08:18:17.919Z,17.50
2022-10-29T08:21:26.657Z,15.65
2022-10-29T08:24:32.077Z,13.68
2022-10-29T08:27:37.592Z,12.25
2022-10-29T08:30:44.260Z,10.98
2022-10-29T08:33:50.721Z,15.60
2022-10-29T08:36:59.154Z,19.38
2022-10-29T08:40:04.697Z,15.23
2022-10-29T08:43:25.333Z,22.63
2022-10-29T08:46:36.293Z,17.75
2022-10-29T08:49:44.977Z,11.80
2022-10-29T08:53:19.511Z,16.33
2022-10-29T08:56:21.437Z,10.85
2022-10-29T08:59:30.771Z,19.40
2022-10-29T09:02:37.381Z,14.50
2022-10-29T09:05:50.918Z,8.27
2022-10-29T09:09:13.504Z,11.02
2022-10-29T09:12:32.392Z,15.55
2022-10-29T09:15:47.608Z,9.25
2022-10-29T09:19:11.225Z,10.90
2022-10-29T09:22:20.630Z,12.32
2022-10-29T09:25:33.298Z,14.40
2022-10-29T09:28:47.798Z,10.65
2022-10-29T09:31:57.410Z,11.98
2022-10-29T09:35:06.858Z,12.20
2022-10-29T09:38:18.432Z,11.52
2022-10-29T09:41:30.118Z,8.68
2022-10-29T09:44:38.716Z,14.70
2022-10-29T09:47:48.962Z,12.48
2022-10-29T09:51:01.232Z,12.32
2022-10-29T09:54:09.598Z,13.05
2022-10-29T09:57:21.027Z,7.60
2022-10-29T10:00:29.092Z,14.00
2022-10-29T10:03:39.119Z,14.25
2022-10-29T10:07:02.767Z,8.35
2022-10-29T10:10:09.634Z,12.80
2022-10-29T10:13:18.968Z,14.65
2022-10-29T10:16:27.214Z,12.30
2022-10-29T10:19:35.245Z,14.75
2022-10-29T10:22:49.476Z,12.15
2022-10-29T10:25:58.803Z,12.73
2022-10-29T10:29:14.221Z,11.57
2022-10-29T10:32:20.113Z,12.23
2022-10-29T10:35:32.051Z,12.70
2022-10-29T10:38:43.985Z,10.83
2022-10-29T10:41:52.756Z,12.10
2022-10-29T10:45:03.062Z,12.20
2022-10-29T10:48:12.023Z,11.73
2022-10-29T10:51:21.371Z,12.15
2022-10-29T10:54:33.079Z,10.35
2022-10-29T10:57:41.243Z,5.82
2022-10-29T11:00:52.670Z,11.30
2022-10-29T11:04:05.071Z,14.23
2022-10-29T11:07:15.444Z,10.55
2022-10-29T11:10:22.245Z,13.25
2022-10-29T11:13:31.167Z,16.38
2022-10-29T11:16:47.778Z,7.80
2022-10-29T11:20:00.225Z,13.30
2022-10-29T11:23:16.683Z,15.82
2022-10-29T11:26:25.235Z,10.70
2022-10-29T11:29:39.984Z,14.23
2022-10-29T11:33:02.224Z,5.93
2022-10-29T11:36:11.293Z,8.30
2022-10-29T11:39:19.153Z,10.27
2022-10-29T11:42:26.029Z,12.65
2022-10-29T11:45:41.307Z,7.38
2022-10-29T11:48:56.750Z,9.13
2022-10-29T11:52:07.786Z,8.57
2022-10-29T11:55:22.887Z,12.85
2022-10-29T11:58:38.152Z,10.07
2022-10-29T12:01:49.335Z,9.75
2022-10-29T12:05:02.895Z,4.28
2022-10-29T12:08:13.485Z,11.57
2022-10-29T12:11:25.123Z,8.38
2022-10-29T12:14:34.653Z,7.03
2022-10-29T12:17:43.729Z,10.65
2022-10-29T12:20:56.156Z,9.10
2022-10-29T13:36:57.172Z,10.63
2022-10-29T13:40:20.309Z,12.60
2022-10-29T13:43:26.657Z,8.85
2022-10-29T13:46:45.536Z,10.13
2022-10-29T13:49:54.901Z,12.70
2022-10-29T13:53:12.247Z,8.95
2022-10-29T13:56:23.119Z,8.50
2022-10-29T13:59:45.269Z,7.38
2022-10-29T14:02:53.727Z,8.00
2022-10-29T14:06:01.876Z,12.82
2022-10-29T14:09:21.542Z,7.72
2022-10-29T14:12:30.904Z,14.30
2022-10-29T14:15:39.415Z,7.70
2022-10-29T14:18:45.208Z,12.65
2022-10-29T14:21:53.225Z,13.80
2022-10-29T14:25:07.902Z,8.15
2022-10-29T14:28:23.408Z,8.27
2022-10-29T14:31:29.250Z,6.25
2022-10-29T14:34:39.513Z,5.43
2022-10-29T14:37:46.274Z,8.25
2022-10-29T14:40:55.085Z,8.40
2022-10-29T14:44:05.807Z,8.15
2022-10-29T14:47:16.171Z,12.25
2022-10-29T14:50:22.813Z,10.20
2022-10-29T14:53:35.563Z,10.10
2022-10-29T14:56:45.812Z,10.65
2022-10-29T15:00:00.761Z,8.65
2022-10-29T15:03:21.448Z,7.25
2022-10-29T15:06:33.444Z,10.27
2022-10-29T15:09:56.960Z,9.82
2022-10-29T15:13:17.368Z,8.23
2022-10-29T15:16:24.024Z,7.65
2022-10-29T15:19:32.043Z,8.70
2022-10-29T15:22:39.814Z,7.55
2022-10-29T15:25:50.218Z,7.40
2022-10-29T15:28:59.495Z,7.03
2022-10-29T15:32:09.620Z,7.18
2022-10-29T15:35:21.484Z,7.35
2022-10-29T15:38:53.947Z,8.25
2022-10-29T15:42:01.111Z,7.75
2022-10-29T15:45:22.371Z,6.45
2022-10-29T15:48:38.882Z,6.00
2022-10-29T15:51:53.391Z,10.98
2022-10-29T15:54:58.406Z,8.98
2022-10-29T15:58:06.358Z,6.88
2022-10-29T16:01:12.612Z,6.07
2022-10-29T16:04:29.876Z,9.73
2022-10-29T16:07:35.526Z,7.80
2022-10-29T16:10:41.824Z,9.02
2022-10-29T16:13:51.842Z,8.85
2022-10-29T16:17:00.240Z,9.38
2022-10-29T16:20:10.066Z,11.13
2022-10-29T16:23:19.129Z,9.77
2022-10-29T16:26:26.406Z,9.20
2022-10-29T16:29:32.698Z,9.15
2022-10-29T16:32:37.778Z,8.88
2022-10-29T16:35:46.345Z,8.82
2022-10-29T16:38:52.256Z,10.60
2022-10-29T16:42:08.215Z,10.40
2022-10-29T16:45:15.992Z,8.93
2022-10-29T16:48:22.477Z,17.63
2022-10-29T16:51:31.177Z,8.07
2022-10-29T16:54:42.027Z,9.95
2022-10-29T16:57:47.213Z,11.70
2022-10-29T17:00:53.032Z,12.25
2022-10-29T17:03:58.218Z,11.40
2022-10-29T17:07:06.832Z,11.73
2022-10-29T17:10:12.130Z,12.75
2022-10-29T17:13:17.767Z,12.15
2022-10-29T17:16:25.804Z,9.68
2022-10-29T17:19:33.618Z,13.40
2022-10-29T17:22:42.131Z,12.45
2022-10-29T17:25:51.097Z,11.18
2022-10-29T17:28:56.252Z,12.27
2022-10-29T17:35:28.992Z,15.10
2022-10-29T17:38:37.137Z,15.45
2022-10-29T17:41:42.968Z,13.48
2022-10-29T17:44:48.458Z,11.57
2022-10-29T17:47:57.752Z,14.38
2022-10-29T17:51:05.607Z,12.57
2022-10-29T17:54:28.265Z,9.55
2022-10-29T17:57:35.415Z,9.88
2022-10-29T18:00:40.835Z,11.32
2022-10-29T18:03:47.213Z,11.45
2022-10-29T18:07:02.723Z,11.23
2022-10-29T18:10:12.951Z,14.07
2022-10-29T18:13:22.111Z,11.07
2022-10-29T18:16:28.963Z,11.57
2022-10-29T18:19:34.896Z,9.75
2022-10-29T18:22:42.054Z,12.88
2022-10-29T18:26:03.132Z,14.10
2022-10-29T18:29:12.380Z,13.53
2022-10-29T18:32:20.408Z,12.02
2022-10-29T18:35:27.419Z,11.23
2022-10-29T18:38:32.674Z,12.68
2022-10-29T18:41:41.087Z,18.48
2022-10-29T18:44:46.376Z,15.38
2022-10-29T18:47:52.125Z,12.98
2022-10-29T18:51:06.789Z,14.18
2022-10-29T18:54:13.505Z,11.07
2022-10-29T18:57:22.703Z,10.70
2022-10-29T19:00:31.196Z,14.68
2022-10-29T19:03:36.620Z,10.13
2022-10-29T19:06:42.825Z,13.10
2022-10-29T19:09:48.792Z,11.57
2022-10-29T19:13:00.102Z,11.40
2022-10-29T19:16:09.762Z,10.93
2022-10-29T19:19:19.787Z,14.48
2022-10-29T19:22:40.389Z,10.63
2022-10-29T19:25:46.811Z,10.48
2022-10-29T19:28:55.099Z,8.98
2022-10-29T19:32:05.983Z,12.75
2022-10-29T19:35:12.257Z,12.43
2022-10-29T19:38:19.914Z,11.38
2022-10-29T19:41:27.805Z,13.32
2022-10-29T19:44:36.725Z,11.13
2022-10-29T19:47:44.370Z,9.65
2022-10-29T19:50:56.610Z,11.65
2022-10-29T19:57:12.134Z,13.52
2022-10-29T20:00:21.454Z,10.50
2022-10-29T20:03:31.753Z,12.80
2022-10-29T20:06:39.036Z,16.42
2022-10-29T20:09:47.573Z,9.90
2022-10-29T20:12:53.808Z,14.88
2022-10-29T20:16:03.196Z,13.05
2022-10-29T20:19:10.127Z,12.93
2022-10-29T20:22:18.406Z,11.27
2022-10-29T20:25:25.274Z,12.70
2022-10-29T20:28:31.484Z,15.77
2022-10-29T20:31:41.664Z,10.70
2022-10-29T20:34:49.945Z,12.02
2022-10-29T20:37:55.614Z,12.65
2022-10-29T20:41:01.863Z,11.10
2022-10-29T20:44:07.708Z,8.52
2022-10-29T20:47:16.419Z,12.60
2022-10-29T20:50:24.002Z,12.35
2022-10-29T20:53:29.883Z,13.27
2022-10-29T20:56:35.215Z,11.95
2022-10-29T20:59:45.689Z,13.23
2022-10-29T21:02:53.745Z,10.48
2022-10-29T21:06:03.369Z,13.00
2022-10-29T21:09:08.578Z,14.70
2022-10-29T21:12:14.115Z,9.95
2022-10-29T21:15:21.926Z,13.68
2022-10-29T21:18:30.048Z,10.32
2022-10-29T21:21:40.363Z,12.15
2022-10-29T21:24:53.757Z,14.32
2022-10-29T21:28:00.267Z,10.40
2022-10-29T21:31:09.102Z,11.48
2022-10-29T21:34:17.130Z,13.43
2022-10-29T21:37:23.003Z,12.15
2022-10-29T21:40:30.129Z,14.50
2022-10-29T21:43:37.338Z,14.25
2022-10-29T21:46:42.860Z,12.98
2022-10-29T21:49:51.997Z,17.10
2022-10-29T21:53:02.029Z,13.35
2022-10-29T21:56:13.458Z,13.18
2022-10-29T21:59:18.674Z,10.50
2022-10-29T22:02:26.384Z,14.88
2022-10-29T22:05:36.248Z,12.80
2022-10-29T22:08:45.058Z,13.80
2022-10-29T22:11:51.185Z,11.20
2022-10-29T22:14:57.789Z,16.10
2022-10-29T22:18:03.358Z,14.10
2022-10-29T22:21:14.071Z,14.35
2022-10-29T22:24:22.451Z,12.35
2022-10-29T22:27:30.295Z,12.95
2022-10-29T22:30:38.267Z,13.10
2022-10-29T22:33:59.091Z,12.63
2022-10-29T22:37:06.746Z,10.25
2022-10-29T22:40:13.222Z,12.77
2022-10-29T22:43:23.108Z,15.95
2022-10-29T22:46:28.927Z,10.98
2022-10-29T22:49:34.411Z,13.60
2022-10-29T22:52:50.161Z,11.18
2022-10-29T22:55:58.040Z,12.10
2022-10-29T22:59:03.910Z,12.48
2022-10-29T23:02:12.167Z,11.65
2022-10-29T23:05:20.751Z,15.50
2022-10-29T23:08:32.241Z,12.68
2022-10-29T23:11:41.120Z,18.35
2022-10-29T23:14:47.360Z,14.40
2022-10-29T23:17:56.243Z,12.73
2022-10-29T23:21:02.471Z,13.20
2022-10-29T23:24:13.193Z,18.00
2022-10-29T23:27:18.921Z,13.52
2022-10-29T23:30:26.678Z,14.63
2022-10-29T23:33:34.604Z,12.20
2022-10-29T23:36:40.981Z,16.38
2022-10-29T23:39:49.074Z,13.60
2022-10-29T23:42:54.431Z,13.50
2022-10-29T23:45:59.777Z,14.15
2022-10-29T23:49:08.081Z,14.70
2022-10-29T23:52:13.377Z,14.68
2022-10-29T23:55:24.038Z,15.45
2022-10-29T23:58:29.338Z,18.90
